Airfield :
LOGIN :

Register | Disclaimer

   EN    FR    IT 

 










Legend :    VFR   Marginal VFR   IFR   Intensive IFR   Very Intensive IFR
Visi :
Ceiling :
>= 8 km
>= 3000ft
5 to 8 km
1000 to 3000 ft
1500m to 5 km
500 to 1000 ft
800 to 1500m
200 to 500 ft
< 800m
< 200 ft
Symbols :   Thunderstorms  Fog  Heavy snow  Heavy precipitations  Wind > 20 kt
SIGMETs :     Misc.  Thunderstorms  Icing  Turbulence  Mountain Waves  Volcanic Ashes







- Airport Elevation : 327 ft
- IATA code : BHX
- Download approach charts


EGBB - Birmingham

CURRENT METAR :
  • 181620Z 16012KT CAVOK 04/M02 Q1011

EXPIRED METARs :
  • 181550Z 16012KT 9999 FEW037 04/M02 Q1011
  • 181520Z 16014KT 9999 SCT042 05/M01 Q1011
  • 181450Z 16014KT 9999 BKN048 05/M01 Q1011
  • 181420Z 17011KT CAVOK 05/M00 Q1012
  • 181350Z 17012KT 9999 FEW030 05/M00 Q1012

TAF TAF EGBB
Valid from the 18 at 12:00 until the 19 at 12:00 UTC


181059Z 1812/1912 16010KT 9999 SCT040
TEMPO 1812/1824 7000 RA BKN010
PROB30
TEMPO 1814/1822 16015G25KT 3000 -SN RASN BKN005
BECMG 1900/1903 BKN010
TEMPO 1900/1912 6000 -SHRA BKN005
PROB30
TEMPO 1900/1912 2500 SHRA BR BKN002
ATIS : +44 121 780 0910
No reported NOTAMs for that airfield.



MET'MAP, your aeronautical weather chart ! - Copyright ORBIFLY December 2007 - Disclaimer

ORBIFLY MET'MAP TEAM :

Programming & Development : Alexandra Zaïnal
Concept & Development : Baudouin d'Aumeries
Co-Development & Prog : Marc-Olivier Méhu
Technical & hardware support : Manuel Goepfert

Contact : metmap@orbifly.com




SOURCES & CREDITS :

   NOAA